sensor_id;sensor_type;location;lat;lon;timestamp;pressure;altitude;pressure_sealevel;temperature;humidity
16148;BME280;8179;59.364;18.018;2024-01-25T00:02:06;99407.25;;;0.90;100.00
16148;BME280;8179;59.364;18.018;2024-01-25T00:04:33;99405.81;;;0.99;100.00
16148;BME280;8179;59.364;18.018;2024-01-25T00:07:00;99398.81;;;0.81;100.00
16148;BME280;8179;59.364;18.018;2024-01-25T00:09:29;99417.38;;;1.05;100.00
16148;BME280;8179;59.364;18.018;2024-01-25T00:11:58;99429.91;;;0.99;100.00
16148;BME280;8179;59.364;18.018;2024-01-25T00:14:25;99431.66;;;1.10;100.00
16148;BME280;8179;59.364;18.018;2024-01-25T00:16:52;99440.44;;;1.06;100.00
16148;BME280;8179;59.364;18.018;2024-01-25T00:19:19;99455.66;;;1.05;100.00
16148;BME280;8179;59.364;18.018;2024-01-25T00:21:46;99453.56;;;1.07;100.00
16148;BME280;8179;59.364;18.018;2024-01-25T00:24:14;99465.91;;;1.08;100.00
16148;BME280;8179;59.364;18.018;2024-01-25T00:26:42;99469.69;;;1.13;100.00
16148;BME280;8179;59.364;18.018;2024-01-25T00:29:09;99480.25;;;1.19;100.00
16148;BME280;8179;59.364;18.018;2024-01-25T00:31:36;99499.09;;;1.07;100.00
16148;BME280;8179;59.364;18.018;2024-01-25T00:34:03;99504.09;;;1.04;100.00
16148;BME280;8179;59.364;18.018;2024-01-25T00:36:31;99518.22;;;1.16;100.00
16148;BME280;8179;59.364;18.018;2024-01-25T00:38:58;99515.19;;;1.13;100.00
16148;BME280;8179;59.364;18.018;2024-01-25T00:41:26;99536.16;;;1.16;100.00
16148;BME280;8179;59.364;18.018;2024-01-25T00:43:56;99534.03;;;1.18;100.00
16148;BME280;8179;59.364;18.018;2024-01-25T00:46:23;99551.66;;;1.14;100.00
16148;BME280;8179;59.364;18.018;2024-01-25T00:48:51;99552.13;;;1.10;100.00
16148;BME280;8179;59.364;18.018;2024-01-25T00:51:21;99554.00;;;1.10;100.00
16148;BME280;8179;59.364;18.018;2024-01-25T00:53:49;99549.19;;;0.95;100.00
16148;BME280;8179;59.364;18.018;2024-01-25T00:56:16;99573.63;;;1.16;100.00
16148;BME280;8179;59.364;18.018;2024-01-25T00:58:43;99582.47;;;1.16;100.00
16148;BME280;8179;59.364;18.018;2024-01-25T01:01:12;99550.00;;;0.96;100.00
16148;BME280;8179;59.364;18.018;2024-01-25T01:03:40;99607.00;;;1.25;100.00
16148;BME280;8179;59.364;18.018;2024-01-25T01:06:08;99613.66;;;1.22;100.00
16148;BME280;8179;59.364;18.018;2024-01-25T01:08:36;99615.41;;;1.17;100.00
16148;BME280;8179;59.364;18.018;2024-01-25T01:11:03;99625.41;;;1.21;100.00
16148;BME280;8179;59.364;18.018;2024-01-25T01:13:30;99637.34;;;1.14;100.00
16148;BME280;8179;59.364;18.018;2024-01-25T01:15:57;99640.72;;;1.09;100.00
16148;BME280;8179;59.364;18.018;2024-01-25T01:18:25;99645.69;;;1.17;100.00
16148;BME280;8179;59.364;18.018;2024-01-25T01:20:53;99656.94;;;1.19;100.00
16148;BME280;8179;59.364;18.018;2024-01-25T01:23:20;99652.91;;;1.17;100.00
16148;BME280;8179;59.364;18.018;2024-01-25T01:25:46;99666.44;;;1.10;100.00
16148;BME280;8179;59.364;18.018;2024-01-25T01:28:13;99672.34;;;1.12;100.00
16148;BME280;8179;59.364;18.018;2024-01-25T01:30:40;99677.66;;;1.24;100.00
16148;BME280;8179;59.364;18.018;2024-01-25T01:33:08;99683.88;;;1.13;100.00
16148;BME280;8179;59.364;18.018;2024-01-25T01:35:36;99683.41;;;1.16;100.00
16148;BME280;8179;59.364;18.018;2024-01-25T01:38:04;99699.66;;;1.26;100.00
16148;BME280;8179;59.364;18.018;2024-01-25T01:40:31;99701.53;;;1.25;100.00
16148;BME280;8179;59.364;18.018;2024-01-25T01:43:02;99716.66;;;1.20;100.00
16148;BME280;8179;59.364;18.018;2024-01-25T01:45:29;99721.47;;;1.18;100.00
16148;BME280;8179;59.364;18.018;2024-01-25T01:47:56;99728.53;;;1.24;100.00
16148;BME280;8179;59.364;18.018;2024-01-25T01:50:23;99736.47;;;1.19;100.00
16148;BME280;8179;59.364;18.018;2024-01-25T01:52:52;99736.47;;;1.19;100.00
16148;BME280;8179;59.364;18.018;2024-01-25T01:55:20;99743.38;;;1.15;100.00
16148;BME280;8179;59.364;18.018;2024-01-25T01:57:48;99740.19;;;1.18;100.00
16148;BME280;8179;59.364;18.018;2024-01-25T02:00:15;99760.94;;;1.22;100.00
16148;BME280;8179;59.364;18.018;2024-01-25T02:02:43;99770.34;;;1.25;100.00
16148;BME280;8179;59.364;18.018;2024-01-25T02:05:10;99776.63;;;1.19;100.00
16148;BME280;8179;59.364;18.018;2024-01-25T02:07:37;99762.91;;;1.15;100.00
16148;BME280;8179;59.364;18.018;2024-01-25T02:10:09;99770.22;;;1.20;100.00
16148;BME280;8179;59.364;18.018;2024-01-25T02:12:37;99780.25;;;1.13;100.00
16148;BME280;8179;59.364;18.018;2024-01-25T02:15:06;99778.06;;;1.09;100.00
16148;BME280;8179;59.364;18.018;2024-01-25T02:17:33;99777.56;;;1.13;100.00
16148;BME280;8179;59.364;18.018;2024-01-25T02:20:00;99798.66;;;1.21;100.00
16148;BME280;8179;59.364;18.018;2024-01-25T02:22:30;99791.44;;;1.09;100.00
16148;BME280;8179;59.364;18.018;2024-01-25T02:24:57;99805.53;;;1.05;100.00
16148;BME280;8179;59.364;18.018;2024-01-25T02:27:24;99820.44;;;1.01;100.00
16148;BME280;8179;59.364;18.018;2024-01-25T02:29:51;99811.59;;;1.00;100.00
16148;BME280;8179;59.364;18.018;2024-01-25T02:32:17;99833.13;;;1.05;100.00
16148;BME280;8179;59.364;18.018;2024-01-25T02:34:44;99826.63;;;1.01;100.00
16148;BME280;8179;59.364;18.018;2024-01-25T02:37:11;99834.53;;;0.96;100.00
16148;BME280;8179;59.364;18.018;2024-01-25T02:39:41;99830.22;;;0.95;100.00
16148;BME280;8179;59.364;18.018;2024-01-25T02:42:08;99851.63;;;0.95;100.00
16148;BME280;8179;59.364;18.018;2024-01-25T02:44:35;99859.19;;;0.98;100.00
16148;BME280;8179;59.364;18.018;2024-01-25T02:47:03;99862.47;;;1.00;100.00
16148;BME280;8179;59.364;18.018;2024-01-25T02:49:30;99859.66;;;0.95;100.00
16148;BME280;8179;59.364;18.018;2024-01-25T02:51:57;99869.19;;;0.91;100.00
16148;BME280;8179;59.364;18.018;2024-01-25T02:54:24;99875.41;;;0.92;100.00
16148;BME280;8179;59.364;18.018;2024-01-25T02:56:52;99890.28;;;0.88;100.00
16148;BME280;8179;59.364;18.018;2024-01-25T02:59:19;99887.50;;;0.94;100.00
16148;BME280;8179;59.364;18.018;2024-01-25T03:01:46;99897.00;;;0.90;100.00
16148;BME280;8179;59.364;18.018;2024-01-25T03:04:13;99918.22;;;0.92;100.00
16148;BME280;8179;59.364;18.018;2024-01-25T03:06:40;99914.25;;;0.94;100.00
16148;BME280;8179;59.364;18.018;2024-01-25T03:09:07;99923.34;;;0.93;100.00
16148;BME280;8179;59.364;18.018;2024-01-25T03:11:34;99946.63;;;0.93;100.00
16148;BME280;8179;59.364;18.018;2024-01-25T03:14:02;99936.81;;;0.98;100.00
16148;BME280;8179;59.364;18.018;2024-01-25T03:16:30;99939.16;;;0.95;100.00
16148;BME280;8179;59.364;18.018;2024-01-25T03:18:56;99940.53;;;0.97;100.00
16148;BME280;8179;59.364;18.018;2024-01-25T03:21:23;99963.13;;;0.90;100.00
16148;BME280;8179;59.364;18.018;2024-01-25T03:23:51;99947.78;;;0.85;100.00
16148;BME280;8179;59.364;18.018;2024-01-25T03:26:18;99957.88;;;0.83;100.00
16148;BME280;8179;59.364;18.018;2024-01-25T03:28:44;99966.84;;;0.89;100.00
16148;BME280;8179;59.364;18.018;2024-01-25T03:31:13;99960.06;;;0.74;100.00
16148;BME280;8179;59.364;18.018;2024-01-25T03:33:40;99984.38;;;0.73;100.00
16148;BME280;8179;59.364;18.018;2024-01-25T03:36:07;99992.03;;;0.69;100.00
16148;BME280;8179;59.364;18.018;2024-01-25T03:38:34;100003.66;;;0.63;100.00
16148;BME280;8179;59.364;18.018;2024-01-25T03:41:01;100020.06;;;0.67;100.00
16148;BME280;8179;59.364;18.018;2024-01-25T03:43:28;100000.47;;;0.54;100.00
16148;BME280;8179;59.364;18.018;2024-01-25T03:45:55;100020.41;;;0.59;100.00
16148;BME280;8179;59.364;18.018;2024-01-25T03:48:23;100031.53;;;0.55;100.00
16148;BME280;8179;59.364;18.018;2024-01-25T03:50:50;100044.56;;;0.52;100.00
16148;BME280;8179;59.364;18.018;2024-01-25T03:53:17;100057.56;;;0.48;100.00
16148;BME280;8179;59.364;18.018;2024-01-25T03:55:44;100050.00;;;0.45;100.00
16148;BME280;8179;59.364;18.018;2024-01-25T03:58:11;100048.59;;;0.43;100.00
16148;BME280;8179;59.364;18.018;2024-01-25T04:00:38;100079.84;;;0.42;100.00
16148;BME280;8179;59.364;18.018;2024-01-25T04:03:05;100071.09;;;0.35;100.00
16148;BME280;8179;59.364;18.018;2024-01-25T04:05:33;100082.25;;;0.32;100.00
16148;BME280;8179;59.364;18.018;2024-01-25T04:08:00;100095.47;;;0.27;100.00
16148;BME280;8179;59.364;18.018;2024-01-25T04:10:27;100095.25;;;0.29;100.00
16148;BME280;8179;59.364;18.018;2024-01-25T04:12:54;100114.13;;;0.34;100.00
16148;BME280;8179;59.364;18.018;2024-01-25T04:15:22;100107.63;;;0.41;100.00
16148;BME280;8179;59.364;18.018;2024-01-25T04:17:49;100114.84;;;0.41;100.00
16148;BME280;8179;59.364;18.018;2024-01-25T04:20:16;100117.53;;;0.41;100.00
16148;BME280;8179;59.364;18.018;2024-01-25T04:22:44;100128.44;;;0.39;100.00
16148;BME280;8179;59.364;18.018;2024-01-25T04:25:11;100124.97;;;0.39;100.00
16148;BME280;8179;59.364;18.018;2024-01-25T04:27:38;100137.69;;;0.43;100.00
16148;BME280;8179;59.364;18.018;2024-01-25T04:30:06;100137.53;;;0.38;100.00
16148;BME280;8179;59.364;18.018;2024-01-25T04:32:33;100142.81;;;0.45;100.00
16148;BME280;8179;59.364;18.018;2024-01-25T04:35:00;100155.78;;;0.41;100.00
16148;BME280;8179;59.364;18.018;2024-01-25T04:37:27;100157.06;;;0.39;100.00
16148;BME280;8179;59.364;18.018;2024-01-25T04:39:56;100173.47;;;0.42;100.00
16148;BME280;8179;59.364;18.018;2024-01-25T04:42:23;100154.16;;;0.59;100.00
16148;BME280;8179;59.364;18.018;2024-01-25T04:44:49;100181.34;;;0.55;100.00
16148;BME280;8179;59.364;18.018;2024-01-25T04:47:16;100189.59;;;0.54;100.00
16148;BME280;8179;59.364;18.018;2024-01-25T04:49:43;100190.88;;;0.51;100.00
16148;BME280;8179;59.364;18.018;2024-01-25T04:52:10;100199.25;;;0.55;100.00
16148;BME280;8179;59.364;18.018;2024-01-25T04:54:37;100203.78;;;0.54;100.00
16148;BME280;8179;59.364;18.018;2024-01-25T04:57:05;100194.59;;;0.50;100.00
16148;BME280;8179;59.364;18.018;2024-01-25T04:59:32;100198.75;;;0.46;100.00
16148;BME280;8179;59.364;18.018;2024-01-25T05:01:59;100214.44;;;0.61;100.00
16148;BME280;8179;59.364;18.018;2024-01-25T05:04:28;100202.81;;;0.49;100.00
16148;BME280;8179;59.364;18.018;2024-01-25T05:06:57;100203.50;;;0.44;100.00
16148;BME280;8179;59.364;18.018;2024-01-25T05:09:24;100239.31;;;0.62;100.00
16148;BME280;8179;59.364;18.018;2024-01-25T05:11:51;100245.56;;;0.55;100.00
16148;BME280;8179;59.364;18.018;2024-01-25T05:14:19;100244.09;;;0.60;100.00
16148;BME280;8179;59.364;18.018;2024-01-25T05:16:46;100253.56;;;0.55;100.00
16148;BME280;8179;59.364;18.018;2024-01-25T05:19:13;100272.59;;;0.47;100.00
16148;BME280;8179;59.364;18.018;2024-01-25T05:21:40;100265.50;;;0.35;100.00
16148;BME280;8179;59.364;18.018;2024-01-25T05:24:07;100271.03;;;0.40;100.00
16148;BME280;8179;59.364;18.018;2024-01-25T05:26:35;100280.53;;;0.36;100.00
16148;BME280;8179;59.364;18.018;2024-01-25T05:29:05;100294.28;;;0.39;100.00
16148;BME280;8179;59.364;18.018;2024-01-25T05:31:35;100290.91;;;0.50;100.00
16148;BME280;8179;59.364;18.018;2024-01-25T05:34:02;100281.00;;;0.51;100.00
16148;BME280;8179;59.364;18.018;2024-01-25T05:36:29;100312.78;;;0.41;100.00
16148;BME280;8179;59.364;18.018;2024-01-25T05:38:55;100304.75;;;0.41;100.00
16148;BME280;8179;59.364;18.018;2024-01-25T05:41:22;100302.81;;;0.30;100.00
16148;BME280;8179;59.364;18.018;2024-01-25T05:43:49;100323.25;;;0.42;100.00
16148;BME280;8179;59.364;18.018;2024-01-25T05:46:16;100317.47;;;0.45;100.00
16148;BME280;8179;59.364;18.018;2024-01-25T05:48:45;100350.50;;;0.33;100.00
16148;BME280;8179;59.364;18.018;2024-01-25T05:51:11;100347.00;;;0.32;100.00
16148;BME280;8179;59.364;18.018;2024-01-25T05:53:39;100347.59;;;0.34;100.00
16148;BME280;8179;59.364;18.018;2024-01-25T05:56:07;100349.31;;;0.29;100.00
16148;BME280;8179;59.364;18.018;2024-01-25T05:58:34;100350.72;;;0.31;100.00
16148;BME280;8179;59.364;18.018;2024-01-25T06:01:02;100365.09;;;0.37;100.00
16148;BME280;8179;59.364;18.018;2024-01-25T06:03:29;100383.63;;;0.32;100.00
16148;BME280;8179;59.364;18.018;2024-01-25T06:05:58;100368.84;;;0.29;100.00
16148;BME280;8179;59.364;18.018;2024-01-25T06:08:25;100373.97;;;0.31;100.00
16148;BME280;8179;59.364;18.018;2024-01-25T06:10:52;100303.38;;;-0.25;100.00
16148;BME280;8179;59.364;18.018;2024-01-25T06:13:19;100397.22;;;0.30;100.00
16148;BME280;8179;59.364;18.018;2024-01-25T06:15:46;100414.50;;;0.27;100.00
16148;BME280;8179;59.364;18.018;2024-01-25T06:18:13;100423.16;;;0.30;100.00
16148;BME280;8179;59.364;18.018;2024-01-25T06:20:40;100427.22;;;0.32;100.00
16148;BME280;8179;59.364;18.018;2024-01-25T06:23:08;100428.41;;;0.43;100.00
16148;BME280;8179;59.364;18.018;2024-01-25T06:25:36;100442.47;;;0.32;100.00
16148;BME280;8179;59.364;18.018;2024-01-25T06:28:03;100443.91;;;0.27;100.00
16148;BME280;8179;59.364;18.018;2024-01-25T06:30:30;100443.47;;;0.37;100.00
16148;BME280;8179;59.364;18.018;2024-01-25T06:32:57;100448.38;;;0.40;100.00
16148;BME280;8179;59.364;18.018;2024-01-25T06:35:26;100457.22;;;0.41;100.00
16148;BME280;8179;59.364;18.018;2024-01-25T06:37:53;100323.38;;;-0.34;100.00
16148;BME280;8179;59.364;18.018;2024-01-25T06:40:21;100465.41;;;0.46;100.00
16148;BME280;8179;59.364;18.018;2024-01-25T06:42:49;100466.50;;;0.38;100.00
16148;BME280;8179;59.364;18.018;2024-01-25T06:45:16;100477.44;;;0.30;100.00
16148;BME280;8179;59.364;18.018;2024-01-25T06:47:43;100440.19;;;-0.03;100.00
16148;BME280;8179;59.364;18.018;2024-01-25T06:50:10;100498.19;;;0.35;100.00
16148;BME280;8179;59.364;18.018;2024-01-25T06:52:37;100499.28;;;0.20;100.00
16148;BME280;8179;59.364;18.018;2024-01-25T06:55:05;100500.59;;;0.05;100.00
16148;BME280;8179;59.364;18.018;2024-01-25T06:57:33;100511.47;;;0.10;100.00
16148;BME280;8179;59.364;18.018;2024-01-25T07:00:00;100526.47;;;0.11;100.00
16148;BME280;8179;59.364;18.018;2024-01-25T07:02:27;100525.22;;;0.13;100.00
16148;BME280;8179;59.364;18.018;2024-01-25T07:04:56;100540.06;;;0.16;100.00
16148;BME280;8179;59.364;18.018;2024-01-25T07:07:22;100548.69;;;0.11;100.00
16148;BME280;8179;59.364;18.018;2024-01-25T07:09:49;100535.09;;;0.13;100.00
16148;BME280;8179;59.364;18.018;2024-01-25T07:12:16;100516.44;;;-0.07;100.00
16148;BME280;8179;59.364;18.018;2024-01-25T07:14:45;100560.59;;;0.22;100.00
16148;BME280;8179;59.364;18.018;2024-01-25T07:17:12;100561.41;;;0.22;100.00
16148;BME280;8179;59.364;18.018;2024-01-25T07:19:39;100571.91;;;0.17;100.00
16148;BME280;8179;59.364;18.018;2024-01-25T07:22:06;100579.34;;;0.09;100.00
16148;BME280;8179;59.364;18.018;2024-01-25T07:24:33;100595.41;;;0.02;100.00
16148;BME280;8179;59.364;18.018;2024-01-25T07:27:00;100595.19;;;0.04;100.00
16148;BME280;8179;59.364;18.018;2024-01-25T07:29:27;100608.34;;;0.05;100.00
16148;BME280;8179;59.364;18.018;2024-01-25T07:31:55;100601.81;;;-0.06;100.00
16148;BME280;8179;59.364;18.018;2024-01-25T07:34:22;100614.97;;;-0.11;100.00
16148;BME280;8179;59.364;18.018;2024-01-25T07:36:51;100638.19;;;-0.05;100.00
16148;BME280;8179;59.364;18.018;2024-01-25T07:39:18;100621.94;;;-0.10;100.00
16148;BME280;8179;59.364;18.018;2024-01-25T07:41:45;100649.91;;;-0.06;100.00
16148;BME280;8179;59.364;18.018;2024-01-25T07:44:12;100602.66;;;-0.38;100.00
16148;BME280;8179;59.364;18.018;2024-01-25T07:46:39;100662.47;;;0.01;100.00
16148;BME280;8179;59.364;18.018;2024-01-25T07:49:07;100652.38;;;0.03;100.00
16148;BME280;8179;59.364;18.018;2024-01-25T07:51:35;100682.16;;;0.13;100.00
16148;BME280;8179;59.364;18.018;2024-01-25T07:54:02;100674.97;;;0.13;100.00
16148;BME280;8179;59.364;18.018;2024-01-25T07:56:29;100677.44;;;0.15;100.00
16148;BME280;8179;59.364;18.018;2024-01-25T07:58:56;100670.88;;;0.11;100.00
16148;BME280;8179;59.364;18.018;2024-01-25T08:01:25;100681.75;;;0.16;100.00
16148;BME280;8179;59.364;18.018;2024-01-25T08:03:52;100691.22;;;0.18;100.00
16148;BME280;8179;59.364;18.018;2024-01-25T08:06:20;100700.06;;;0.12;100.00
16148;BME280;8179;59.364;18.018;2024-01-25T08:08:48;100643.16;;;-0.41;100.00
16148;BME280;8179;59.364;18.018;2024-01-25T08:11:15;100718.38;;;0.09;100.00
16148;BME280;8179;59.364;18.018;2024-01-25T08:13:45;100729.25;;;0.14;100.00
16148;BME280;8179;59.364;18.018;2024-01-25T08:16:12;100735.63;;;0.13;100.00
16148;BME280;8179;59.364;18.018;2024-01-25T08:18:44;100730.09;;;0.01;100.00
16148;BME280;8179;59.364;18.018;2024-01-25T08:21:12;100755.00;;;0.21;100.00
16148;BME280;8179;59.364;18.018;2024-01-25T08:23:40;100763.00;;;0.21;100.00
16148;BME280;8179;59.364;18.018;2024-01-25T08:26:08;100717.56;;;-0.18;100.00
16148;BME280;8179;59.364;18.018;2024-01-25T08:28:38;100769.78;;;0.11;100.00
16148;BME280;8179;59.364;18.018;2024-01-25T08:31:06;100782.13;;;0.18;100.00
16148;BME280;8179;59.364;18.018;2024-01-25T08:33:33;100800.25;;;0.23;100.00
16148;BME280;8179;59.364;18.018;2024-01-25T08:36:00;100799.22;;;0.24;100.00
16148;BME280;8179;59.364;18.018;2024-01-25T08:38:27;100797.75;;;0.28;100.00
16148;BME280;8179;59.364;18.018;2024-01-25T08:40:56;100810.53;;;0.33;100.00
16148;BME280;8179;59.364;18.018;2024-01-25T08:43:23;100799.22;;;0.24;100.00
16148;BME280;8179;59.364;18.018;2024-01-25T08:45:51;100797.97;;;0.13;100.00
16148;BME280;8179;59.364;18.018;2024-01-25T08:48:18;100814.44;;;0.30;100.00
16148;BME280;8179;59.364;18.018;2024-01-25T08:50:45;100822.66;;;0.29;100.00
16148;BME280;8179;59.364;18.018;2024-01-25T08:53:14;100822.25;;;0.32;100.00
16148;BME280;8179;59.364;18.018;2024-01-25T08:55:41;100832.34;;;0.23;100.00
16148;BME280;8179;59.364;18.018;2024-01-25T08:58:10;100824.09;;;0.18;100.00
16148;BME280;8179;59.364;18.018;2024-01-25T09:00:37;100815.03;;;0.19;100.00
16148;BME280;8179;59.364;18.018;2024-01-25T09:03:04;100647.78;;;-0.96;100.00
16148;BME280;8179;59.364;18.018;2024-01-25T09:05:31;100831.72;;;0.14;100.00
16148;BME280;8179;59.364;18.018;2024-01-25T09:08:00;100844.44;;;0.19;100.00
16148;BME280;8179;59.364;18.018;2024-01-25T09:10:27;100850.63;;;0.13;100.00
16148;BME280;8179;59.364;18.018;2024-01-25T09:12:54;100859.28;;;0.21;100.00
16148;BME280;8179;59.364;18.018;2024-01-25T09:15:22;100858.66;;;0.19;100.00
16148;BME280;8179;59.364;18.018;2024-01-25T09:17:48;100857.41;;;0.15;100.00
16148;BME280;8179;59.364;18.018;2024-01-25T09:20:15;100878.16;;;0.13;100.00
16148;BME280;8179;59.364;18.018;2024-01-25T09:22:42;100873.66;;;0.14;100.00
16148;BME280;8179;59.364;18.018;2024-01-25T09:25:09;100870.75;;;-0.05;100.00
16148;BME280;8179;59.364;18.018;2024-01-25T09:27:36;100880.22;;;0.05;100.00
16148;BME280;8179;59.364;18.018;2024-01-25T09:30:05;100885.75;;;-0.04;100.00
16148;BME280;8179;59.364;18.018;2024-01-25T09:32:34;100894.41;;;0.05;100.00
16148;BME280;8179;59.364;18.018;2024-01-25T09:35:01;100883.94;;;0.04;100.00
16148;BME280;8179;59.364;18.018;2024-01-25T09:37:28;100898.94;;;0.11;100.00
16148;BME280;8179;59.364;18.018;2024-01-25T09:39:55;100882.69;;;0.13;100.00
16148;BME280;8179;59.364;18.018;2024-01-25T09:42:24;100906.19;;;0.24;100.00
16148;BME280;8179;59.364;18.018;2024-01-25T09:44:52;100927.81;;;0.29;100.00
16148;BME280;8179;59.364;18.018;2024-01-25T09:47:21;100933.13;;;0.22;100.00
16148;BME280;8179;59.364;18.018;2024-01-25T09:49:50;100921.19;;;0.18;100.00
16148;BME280;8179;59.364;18.018;2024-01-25T09:52:19;100936.00;;;0.21;100.00
16148;BME280;8179;59.364;18.018;2024-01-25T09:54:53;100930.47;;;0.22;100.00
16148;BME280;8179;59.364;18.018;2024-01-25T09:57:24;100946.28;;;0.17;100.00
16148;BME280;8179;59.364;18.018;2024-01-25T09:59:52;100948.31;;;0.09;100.00
16148;BME280;8179;59.364;18.018;2024-01-25T10:02:20;100954.91;;;0.13;100.00
16148;BME280;8179;59.364;18.018;2024-01-25T10:04:51;100951.19;;;0.07;100.00
16148;BME280;8179;59.364;18.018;2024-01-25T10:07:35;100960.19;;;-0.01;100.00
16148;BME280;8179;59.364;18.018;2024-01-25T10:10:04;100951.31;;;-0.14;100.00
16148;BME280;8179;59.364;18.018;2024-01-25T10:12:31;100944.28;;;-0.22;100.00
16148;BME280;8179;59.364;18.018;2024-01-25T10:14:58;100979.94;;;-0.02;100.00
16148;BME280;8179;59.364;18.018;2024-01-25T10:17:27;100963.06;;;-0.02;100.00
16148;BME280;8179;59.364;18.018;2024-01-25T10:19:56;100970.31;;;0.11;100.00
16148;BME280;8179;59.364;18.018;2024-01-25T10:22:24;100979.44;;;0.23;100.00
16148;BME280;8179;59.364;18.018;2024-01-25T10:24:52;101004.22;;;0.04;100.00
16148;BME280;8179;59.364;18.018;2024-01-25T10:27:20;100950.19;;;-0.40;100.00
16148;BME280;8179;59.364;18.018;2024-01-25T10:29:48;100978.03;;;-0.14;100.00
16148;BME280;8179;59.364;18.018;2024-01-25T10:32:16;100974.66;;;-0.30;100.00
16148;BME280;8179;59.364;18.018;2024-01-25T10:34:45;101024.59;;;0.05;100.00
16148;BME280;8179;59.364;18.018;2024-01-25T10:37:14;100974.50;;;-0.21;100.00
16148;BME280;8179;59.364;18.018;2024-01-25T10:39:44;101009.03;;;0.15;100.00
16148;BME280;8179;59.364;18.018;2024-01-25T10:42:11;101027.31;;;0.11;100.00
16148;BME280;8179;59.364;18.018;2024-01-25T10:44:38;101039.22;;;0.09;100.00
16148;BME280;8179;59.364;18.018;2024-01-25T10:47:06;101027.66;;;-0.05;100.00
16148;BME280;8179;59.364;18.018;2024-01-25T10:49:34;101038.78;;;0.05;100.00
16148;BME280;8179;59.364;18.018;2024-01-25T10:52:05;101047.00;;;0.04;100.00
16148;BME280;8179;59.364;18.018;2024-01-25T10:54:34;101040.66;;;0.11;100.00
16148;BME280;8179;59.364;18.018;2024-01-25T10:57:01;101039.25;;;0.15;100.00
16148;BME280;8179;59.364;18.018;2024-01-25T10:59:30;101051.16;;;0.13;100.00
16148;BME280;8179;59.364;18.018;2024-01-25T11:01:57;101039.50;;;-0.14;100.00
16148;BME280;8179;59.364;18.018;2024-01-25T11:04:24;101055.69;;;-0.22;100.00
16148;BME280;8179;59.364;18.018;2024-01-25T11:06:51;101069.94;;;-0.15;100.00
16148;BME280;8179;59.364;18.018;2024-01-25T11:09:19;101070.19;;;-0.10;100.00
16148;BME280;8179;59.364;18.018;2024-01-25T11:11:49;101059.84;;;-0.20;100.00
16148;BME280;8179;59.364;18.018;2024-01-25T11:14:16;101083.91;;;-0.20;100.00
16148;BME280;8179;59.364;18.018;2024-01-25T11:16:44;101108.41;;;-0.10;100.00
16148;BME280;8179;59.364;18.018;2024-01-25T11:19:21;101089.78;;;0.04;100.00
16148;BME280;8179;59.364;18.018;2024-01-25T11:21:50;101095.97;;;0.04;100.00
16148;BME280;8179;59.364;18.018;2024-01-25T11:24:20;101110.19;;;0.11;100.00
16148;BME280;8179;59.364;18.018;2024-01-25T11:27:02;101108.75;;;0.09;100.00
16148;BME280;8179;59.364;18.018;2024-01-25T11:29:30;101117.28;;;-0.09;100.00
16148;BME280;8179;59.364;18.018;2024-01-25T11:31:57;101114.34;;;-0.14;100.00
16148;BME280;8179;59.364;18.018;2024-01-25T11:34:24;101096.44;;;-0.48;100.00
16148;BME280;8179;59.364;18.018;2024-01-25T11:36:51;101129.50;;;-0.28;100.00
16148;BME280;8179;59.364;18.018;2024-01-25T11:39:20;101127.59;;;-0.34;100.00
16148;BME280;8179;59.364;18.018;2024-01-25T11:41:47;101142.28;;;-0.45;100.00
16148;BME280;8179;59.364;18.018;2024-01-25T11:44:16;101126.00;;;-0.50;100.00
16148;BME280;8179;59.364;18.018;2024-01-25T11:46:43;101133.69;;;-0.40;100.00
16148;BME280;8179;59.364;18.018;2024-01-25T11:49:10;101140.63;;;-0.46;100.00
16148;BME280;8179;59.364;18.018;2024-01-25T11:51:37;101156.22;;;-0.28;100.00
16148;BME280;8179;59.364;18.018;2024-01-25T11:54:04;101153.16;;;-0.25;100.00
16148;BME280;8179;59.364;18.018;2024-01-25T11:56:34;101146.28;;;-0.34;100.00
16148;BME280;8179;59.364;18.018;2024-01-25T11:59:04;101150.16;;;-0.37;100.00
16148;BME280;8179;59.364;18.018;2024-01-25T12:01:32;101158.88;;;-0.28;100.00
16148;BME280;8179;59.364;18.018;2024-01-25T12:03:59;101161.41;;;-0.20;100.00
16148;BME280;8179;59.364;18.018;2024-01-25T12:06:27;101150.22;;;-0.30;100.00
16148;BME280;8179;59.364;18.018;2024-01-25T12:08:54;101176.78;;;-0.22;100.00
16148;BME280;8179;59.364;18.018;2024-01-25T12:11:21;101181.09;;;-0.28;100.00
16148;BME280;8179;59.364;18.018;2024-01-25T12:13:48;101168.50;;;-0.34;100.00
16148;BME280;8179;59.364;18.018;2024-01-25T12:16:15;101183.56;;;-0.26;100.00
16148;BME280;8179;59.364;18.018;2024-01-25T12:18:44;101200.38;;;-0.32;100.00
16148;BME280;8179;59.364;18.018;2024-01-25T12:21:11;101202.28;;;-0.26;100.00
16148;BME280;8179;59.364;18.018;2024-01-25T12:23:42;101205.31;;;-0.29;100.00
16148;BME280;8179;59.364;18.018;2024-01-25T12:26:10;101206.03;;;-0.42;100.00
16148;BME280;8179;59.364;18.018;2024-01-25T12:28:37;101165.03;;;-0.77;100.00
16148;BME280;8179;59.364;18.018;2024-01-25T12:31:05;101237.38;;;-0.29;100.00
16148;BME280;8179;59.364;18.018;2024-01-25T12:33:33;101233.06;;;-0.30;100.00
16148;BME280;8179;59.364;18.018;2024-01-25T12:36:02;101218.44;;;-0.34;100.00
16148;BME280;8179;59.364;18.018;2024-01-25T12:38:29;101233.25;;;-0.32;100.00
16148;BME280;8179;59.364;18.018;2024-01-25T12:40:59;101246.88;;;-0.26;100.00
16148;BME280;8179;59.364;18.018;2024-01-25T12:43:26;101243.44;;;-0.42;100.00
16148;BME280;8179;59.364;18.018;2024-01-25T12:45:53;101240.50;;;-0.47;100.00
16148;BME280;8179;59.364;18.018;2024-01-25T12:48:20;101244.75;;;-0.52;100.00
16148;BME280;8179;59.364;18.018;2024-01-25T12:50:47;101242.34;;;-0.47;100.00
16148;BME280;8179;59.364;18.018;2024-01-25T12:53:16;101235.09;;;-0.32;100.00